createdAt,value
2018-09-29T00:01:42.809Z,7.07
2018-09-29T00:04:11.700Z,6.77
2018-09-29T00:06:39.438Z,6.23
2018-09-29T00:09:08.333Z,6.93
2018-09-29T00:11:36.065Z,6.13
2018-09-29T00:14:04.964Z,7.10
2018-09-29T00:16:32.719Z,7.27
2018-09-29T00:19:01.604Z,7.70
2018-09-29T00:21:29.904Z,7.37
2018-09-29T00:23:57.633Z,7.10
2018-09-29T00:26:25.943Z,6.90
2018-09-29T00:28:54.868Z,6.47
2018-09-29T00:31:23.149Z,6.50
2018-09-29T00:33:50.879Z,7.03
2018-09-29T00:36:19.764Z,6.43
2018-09-29T00:38:47.497Z,6.23
2018-09-29T00:41:16.384Z,6.17
2018-09-29T00:43:44.693Z,6.90
2018-09-29T00:46:13.006Z,6.20
2018-09-29T00:48:41.314Z,6.43
2018-09-29T00:51:09.058Z,7.00
2018-09-29T00:53:37.959Z,6.73
2018-09-29T00:56:05.691Z,6.70
2018-09-29T00:58:34.579Z,6.43
2018-09-29T01:01:02.342Z,6.87
2018-09-29T01:03:30.655Z,6.90
2018-09-29T01:05:59.548Z,6.73
2018-09-29T01:08:27.279Z,7.00
2018-09-29T01:10:56.163Z,7.43
2018-09-29T01:13:24.478Z,7.00
2018-09-29T01:15:52.786Z,6.67
2018-09-29T01:18:21.090Z,6.30
2018-09-29T01:20:49.410Z,7.23
2018-09-29T01:23:17.154Z,6.77
2018-09-29T01:25:46.051Z,6.57
2018-09-29T01:28:13.778Z,6.57
2018-09-29T01:30:42.082Z,6.20
2018-09-29T01:33:10.405Z,6.73
2018-09-29T01:35:39.293Z,5.97
2018-09-29T01:38:07.028Z,6.33
2018-09-29T01:40:35.913Z,6.20
2018-09-29T01:43:03.673Z,6.57
2018-09-29T01:45:31.998Z,6.50
2018-09-29T01:48:00.314Z,5.17
2018-09-29T01:50:28.619Z,5.90
2018-09-29T01:52:57.504Z,5.10
2018-09-29T01:55:25.233Z,5.53
2018-09-29T01:57:54.122Z,5.23
2018-09-29T02:00:21.849Z,5.27
2018-09-29T02:02:50.177Z,5.60
2018-09-29T02:05:19.067Z,5.10
2018-09-29T02:07:46.796Z,4.93
2018-09-29T02:10:15.689Z,4.90
2018-09-29T02:12:43.415Z,4.70
2018-09-29T02:15:11.713Z,4.13
2018-09-29T02:17:40.019Z,5.10
2018-09-29T02:20:08.907Z,4.93
2018-09-29T02:22:37.187Z,3.97
2018-09-29T02:25:05.518Z,4.03
2018-09-29T02:27:33.261Z,4.30
2018-09-29T02:30:01.571Z,3.90
2018-09-29T02:32:29.885Z,4.30
2018-09-29T02:34:58.185Z,3.80
2018-09-29T02:37:26.485Z,4.03
2018-09-29T02:39:54.789Z,4.23
2018-09-29T02:42:23.677Z,4.07
2018-09-29T02:44:51.402Z,4.23
2018-09-29T02:47:19.704Z,4.47
2018-09-29T02:49:48.598Z,4.33
2018-09-29T02:52:16.331Z,4.03
2018-09-29T02:54:45.214Z,3.50
2018-09-29T02:57:12.942Z,3.70
2018-09-29T02:59:41.245Z,3.80
2018-09-29T03:02:10.124Z,3.80
2018-09-29T03:04:38.464Z,3.60
2018-09-29T03:07:06.254Z,3.80
2018-09-29T03:09:34.517Z,4.00
2018-09-29T03:12:03.402Z,3.80
2018-09-29T03:14:31.132Z,4.03
2018-09-29T03:16:59.437Z,4.20
2018-09-29T03:19:28.326Z,3.50
2018-09-29T03:21:56.049Z,4.70
2018-09-29T03:24:24.353Z,6.77
2018-09-29T03:26:52.665Z,6.67
2018-09-29T03:29:20.968Z,4.73
2018-09-29T03:31:49.928Z,3.93
2018-09-29T03:34:17.578Z,3.53
2018-09-29T03:36:46.461Z,3.47
2018-09-29T03:39:14.769Z,2.80
2018-09-29T03:41:43.071Z,3.30
2018-09-29T03:44:11.380Z,2.73
2018-09-29T03:46:39.114Z,4.10
2018-09-29T03:49:08.001Z,3.77
2018-09-29T03:51:36.332Z,3.40
2018-09-29T03:54:04.630Z,3.43
2018-09-29T03:56:32.353Z,2.73
2018-09-29T03:59:00.661Z,3.83
2018-09-29T04:01:28.977Z,3.10
2018-09-29T04:03:57.864Z,3.30
2018-09-29T04:06:26.203Z,3.40
2018-09-29T04:08:54.505Z,3.67
2018-09-29T04:11:22.825Z,3.77
2018-09-29T04:13:50.606Z,2.93
2018-09-29T04:16:19.438Z,3.40
2018-09-29T04:18:47.751Z,3.80
2018-09-29T04:21:16.048Z,3.70
2018-09-29T04:23:43.785Z,4.10
2018-09-29T04:26:12.667Z,4.40
2018-09-29T04:28:40.401Z,4.00
2018-09-29T04:31:09.291Z,4.33
2018-09-29T04:33:37.018Z,4.07
2018-09-29T04:36:05.341Z,3.90
2018-09-29T04:38:34.229Z,4.30
2018-09-29T04:41:01.963Z,4.27
2018-09-29T04:43:30.867Z,3.20
2018-09-29T04:45:59.176Z,3.83
2018-09-29T04:48:27.480Z,3.97
2018-09-29T04:50:55.785Z,3.63
2018-09-29T04:53:23.516Z,4.77
2018-09-29T04:55:52.400Z,6.77
2018-09-29T04:58:20.142Z,6.87
2018-09-29T05:00:48.444Z,5.27
2018-09-29T05:03:17.339Z,6.03
2018-09-29T05:05:45.655Z,4.10
2018-09-29T05:08:13.992Z,4.13
2018-09-29T05:10:41.725Z,3.93
2018-09-29T05:13:10.611Z,3.63
2018-09-29T05:15:38.914Z,3.60
2018-09-29T05:18:06.645Z,3.53
2018-09-29T05:20:35.539Z,3.67
2018-09-29T05:23:03.292Z,3.63
2018-09-29T05:25:31.576Z,4.00
2018-09-29T05:28:00.467Z,4.20
2018-09-29T05:30:28.439Z,4.83
2018-09-29T05:32:56.502Z,4.40
2018-09-29T05:35:24.806Z,4.90
2018-09-29T05:37:53.120Z,5.20
2018-09-29T05:40:21.433Z,5.80
2018-09-29T05:42:50.339Z,8.77
2018-09-29T05:45:18.075Z,4.43
2018-09-29T05:47:46.381Z,4.63
2018-09-29T05:50:15.268Z,4.57
2018-09-29T05:52:43.004Z,4.27
2018-09-29T05:55:11.643Z,4.10
2018-09-29T05:57:40.198Z,4.13
2018-09-29T06:00:08.005Z,4.83
2018-09-29T06:02:36.258Z,4.53
2018-09-29T06:05:05.140Z,4.63
2018-09-29T06:07:32.967Z,4.50
2018-09-29T06:10:01.212Z,4.30
2018-09-29T06:12:29.529Z,4.47
2018-09-29T06:14:57.841Z,4.37
2018-09-29T06:17:26.165Z,4.00
2018-09-29T06:19:55.065Z,4.27
2018-09-29T06:22:23.367Z,4.97
2018-09-29T06:24:51.109Z,9.93
2018-09-29T06:27:20.004Z,5.57
2018-09-29T06:29:47.725Z,4.67
2018-09-29T06:32:16.616Z,4.43
2018-09-29T06:34:44.943Z,8.33
2018-09-29T06:37:13.282Z,10.77
2018-09-29T06:39:41.611Z,14.17
2018-09-29T06:42:09.929Z,14.87
2018-09-29T06:44:37.667Z,10.70
2018-09-29T06:47:05.985Z,9.27
2018-09-29T06:49:34.310Z,7.83
2018-09-29T06:52:02.625Z,9.50
2018-09-29T06:54:31.537Z,9.27
2018-09-29T06:56:59.849Z,12.73
2018-09-29T06:59:27.636Z,20.87
2018-09-29T07:01:56.493Z,13.50
2018-09-29T07:04:24.234Z,9.57
2018-09-29T07:06:52.789Z,9.47
2018-09-29T07:09:21.878Z,10.10
2018-09-29T07:11:49.646Z,10.03
2018-09-29T07:14:18.551Z,10.07
2018-09-29T07:16:46.295Z,9.83
2018-09-29T07:19:15.193Z,8.60
2018-09-29T07:21:43.563Z,12.10
2018-09-29T07:24:11.844Z,14.47
2018-09-29T07:26:40.146Z,8.00
2018-09-29T07:29:08.469Z,8.20
2018-09-29T07:31:36.207Z,8.37
2018-09-29T07:34:05.097Z,9.00
2018-09-29T07:36:33.415Z,8.20
2018-09-29T07:39:01.154Z,8.17
2018-09-29T07:41:29.463Z,6.77
2018-09-29T07:43:57.787Z,6.20
2018-09-29T07:46:26.692Z,5.57
2018-09-29T07:48:55.018Z,5.47
2018-09-29T07:51:23.354Z,4.80
2018-09-29T07:53:51.662Z,4.37
2018-09-29T07:56:19.981Z,4.10
2018-09-29T07:58:48.288Z,3.33
2018-09-29T08:01:16.599Z,3.10
2018-09-29T08:03:44.930Z,3.80
2018-09-29T08:06:12.696Z,2.70
2018-09-29T08:08:40.985Z,2.20
2018-09-29T08:11:09.885Z,2.53
2018-09-29T08:13:38.285Z,2.60
2018-09-29T08:16:06.613Z,2.77
2018-09-29T08:18:34.925Z,2.67
2018-09-29T08:21:02.671Z,2.23
2018-09-29T08:23:31.591Z,2.00
2018-09-29T08:25:59.581Z,2.20
2018-09-29T08:28:28.222Z,3.77
2018-09-29T08:30:56.540Z,2.13
2018-09-29T08:33:24.288Z,1.87
2018-09-29T08:35:52.604Z,1.70
2018-09-29T08:38:21.505Z,7.60
2018-09-29T08:40:49.820Z,5.90
2018-09-29T08:43:18.161Z,2.20
2018-09-29T08:45:45.895Z,2.20
2018-09-29T08:48:14.803Z,1.47
2018-09-29T08:50:43.124Z,1.40
2018-09-29T08:53:11.456Z,1.33
2018-09-29T08:55:39.764Z,1.10
2018-09-29T08:58:08.085Z,1.90
2018-09-29T09:00:35.837Z,1.40
2018-09-29T09:03:04.729Z,1.30
2018-09-29T09:05:33.045Z,1.47
2018-09-29T09:08:00.785Z,1.60
2018-09-29T09:10:29.690Z,1.60
2018-09-29T09:12:58.012Z,1.60
2018-09-29T09:15:25.825Z,1.50
2018-09-29T09:17:54.735Z,1.40
2018-09-29T09:20:23.079Z,1.50
2018-09-29T09:22:50.840Z,1.40
2018-09-29T09:25:19.131Z,1.20
2018-09-29T09:27:48.030Z,1.10
2018-09-29T09:30:16.436Z,1.20
2018-09-29T09:32:44.162Z,6.90
2018-09-29T09:35:12.420Z,7.33
2018-09-29T09:37:40.756Z,11.13
2018-09-29T09:40:09.658Z,8.80
2018-09-29T09:42:37.982Z,1.23
2018-09-29T09:45:05.727Z,1.00
2018-09-29T09:47:34.618Z,1.07
2018-09-29T09:50:02.936Z,1.20
2018-09-29T09:52:31.301Z,0.97
2018-09-29T09:54:59.037Z,8.77
2018-09-29T09:57:27.355Z,3.47
2018-09-29T09:59:56.268Z,2.10
2018-09-29T10:02:23.995Z,4.83
2018-09-29T10:04:52.896Z,1.20
2018-09-29T10:07:20.646Z,12.47
2018-09-29T10:09:48.974Z,0.93
2018-09-29T10:12:17.298Z,1.10
2018-09-29T10:14:46.189Z,1.00
2018-09-29T10:17:13.945Z,1.07
2018-09-29T10:19:42.849Z,1.00
2018-09-29T10:22:11.164Z,1.17
2018-09-29T10:24:40.263Z,0.80
2018-09-29T10:27:08.348Z,0.90
2018-09-29T10:29:36.100Z,0.87
2018-09-29T10:32:05.251Z,1.13
2018-09-29T10:34:33.566Z,5.30
2018-09-29T10:37:01.888Z,3.07
2018-09-29T10:39:30.223Z,3.60
2018-09-29T10:41:59.525Z,1.20
2018-09-29T10:44:27.945Z,1.20
2018-09-29T10:46:55.688Z,1.17
2018-09-29T10:49:24.575Z,0.90
2018-09-29T10:51:52.888Z,1.27
2018-09-29T10:54:21.209Z,1.20
2018-09-29T10:56:49.534Z,1.10
2018-09-29T10:59:17.933Z,0.90
2018-09-29T11:01:45.583Z,1.20
2018-09-29T11:04:14.470Z,0.90
2018-09-29T11:06:43.070Z,1.03
2018-09-29T11:09:11.388Z,1.20
2018-09-29T11:11:39.727Z,0.90
2018-09-29T11:14:08.049Z,0.90
2018-09-29T11:16:35.897Z,1.00
2018-09-29T11:19:04.145Z,10.37
2018-09-29T11:21:33.058Z,2.30
2018-09-29T11:24:00.821Z,10.17
2018-09-29T11:26:29.713Z,4.17
2018-09-29T11:28:57.464Z,2.70
2018-09-29T11:31:26.371Z,1.10
2018-09-29T11:33:54.706Z,0.80
2018-09-29T11:36:23.022Z,1.60
2018-09-29T11:38:51.333Z,2.03
2018-09-29T11:41:19.087Z,3.40
2018-09-29T11:43:47.397Z,2.87
2018-09-29T11:46:16.293Z,1.30
2018-09-29T11:48:44.044Z,1.30
2018-09-29T11:51:12.358Z,0.90
2018-09-29T11:53:41.257Z,1.20
2018-09-29T11:56:09.012Z,0.70
2018-09-29T11:58:37.886Z,0.87
2018-09-29T12:01:06.214Z,0.80
2018-09-29T12:03:34.548Z,1.10
2018-09-29T12:06:02.958Z,1.70
2018-09-29T12:08:31.190Z,0.93
2018-09-29T12:10:59.523Z,11.27
2018-09-29T12:13:27.923Z,7.53
2018-09-29T12:15:56.632Z,7.10
2018-09-29T12:18:24.901Z,1.83
2018-09-29T12:20:53.825Z,1.00
2018-09-29T12:23:22.149Z,0.77
2018-09-29T12:25:50.466Z,0.80
2018-09-29T12:28:18.793Z,1.13
2018-09-29T12:30:47.188Z,0.97
2018-09-29T12:33:15.505Z,1.00
2018-09-29T12:35:43.260Z,0.97
2018-09-29T12:38:11.586Z,0.90
2018-09-29T12:40:40.488Z,0.90
2018-09-29T12:43:08.843Z,0.70
2018-09-29T12:45:36.591Z,3.93
2018-09-29T12:48:04.996Z,1.00
2018-09-29T12:50:33.816Z,0.90
2018-09-29T12:53:02.145Z,8.67
2018-09-29T12:55:30.510Z,3.50
2018-09-29T12:57:58.856Z,1.97
2018-09-29T13:00:27.179Z,1.50
2018-09-29T13:02:55.537Z,2.10
2018-09-29T13:05:23.860Z,1.63
2018-09-29T13:07:52.316Z,1.50
2018-09-29T13:10:20.103Z,1.30
2018-09-29T13:12:48.515Z,1.50
2018-09-29T13:15:17.472Z,1.27
2018-09-29T13:17:45.877Z,3.40
2018-09-29T13:20:13.613Z,1.43
2018-09-29T13:22:43.165Z,19.27
2018-09-29T13:25:10.921Z,1.30
2018-09-29T13:27:39.813Z,1.10
2018-09-29T13:30:08.189Z,1.23
2018-09-29T13:32:36.516Z,5.47
2018-09-29T13:35:05.858Z,14.27
2018-09-29T13:37:33.647Z,2.30
2018-09-29T13:40:02.552Z,1.73
2018-09-29T13:42:30.867Z,1.30
2018-09-29T13:44:59.197Z,1.10
2018-09-29T13:47:26.977Z,1.50
2018-09-29T13:49:55.862Z,1.53
2018-09-29T13:52:24.205Z,1.10
2018-09-29T13:54:52.523Z,1.03
2018-09-29T13:57:20.280Z,1.30
2018-09-29T13:59:49.413Z,1.50
2018-09-29T14:02:17.796Z,1.30
2018-09-29T14:04:46.066Z,6.27
2018-09-29T14:07:14.379Z,1.43
2018-09-29T14:09:42.700Z,1.23
2018-09-29T14:12:10.540Z,1.20
2018-09-29T14:14:39.492Z,44.80
2018-09-29T14:17:08.058Z,7.67
2018-09-29T14:19:36.181Z,2.77
2018-09-29T14:22:04.501Z,2.20
2018-09-29T14:24:32.853Z,2.23
2018-09-29T14:27:01.244Z,2.20
2018-09-29T14:29:29.595Z,2.07
2018-09-29T14:31:57.428Z,1.60
2018-09-29T14:34:26.353Z,1.93
2018-09-29T14:36:54.760Z,1.93
2018-09-29T14:39:23.013Z,6.33
2018-09-29T14:41:51.354Z,18.57
2018-09-29T14:44:19.677Z,5.33
2018-09-29T14:46:48.063Z,3.97
2018-09-29T14:49:16.386Z,2.10
2018-09-29T14:51:44.717Z,1.50
2018-09-29T14:54:13.108Z,1.70
2018-09-29T14:56:41.437Z,1.80
2018-09-29T14:59:09.815Z,2.00
2018-09-29T15:01:37.558Z,1.77
2018-09-29T15:04:06.490Z,1.80
2018-09-29T15:06:34.821Z,2.17
2018-09-29T15:09:03.192Z,3.73
2018-09-29T15:11:30.933Z,3.17
2018-09-29T15:13:59.842Z,3.27
2018-09-29T15:16:27.585Z,3.23
2018-09-29T15:18:57.269Z,2.67
2018-09-29T15:21:25.003Z,4.90
2018-09-29T15:23:53.907Z,3.43
2018-09-29T15:26:22.256Z,4.30
2018-09-29T15:28:50.581Z,3.90
2018-09-29T15:31:19.050Z,3.10
2018-09-29T15:33:47.216Z,3.10
2018-09-29T15:36:15.538Z,1.93
2018-09-29T15:38:43.859Z,2.47
2018-09-29T15:41:12.189Z,7.00
2018-09-29T15:43:39.927Z,6.47
2018-09-29T15:46:08.848Z,6.57
2018-09-29T15:48:37.275Z,4.13
2018-09-29T15:51:05.564Z,9.13
2018-09-29T15:53:33.925Z,13.80
2018-09-29T15:56:04.188Z,5.25
2018-09-29T15:58:31.929Z,18.20
2018-09-29T16:01:00.842Z,24.87
2018-09-29T16:03:29.168Z,10.10
2018-09-29T16:05:56.925Z,10.37
2018-09-29T16:08:25.251Z,18.10
2018-09-29T16:10:53.601Z,17.03
2018-09-29T16:13:21.937Z,28.20
2018-09-29T16:15:50.261Z,19.97
2018-09-29T16:18:19.188Z,23.97
2018-09-29T16:20:47.021Z,35.07
2018-09-29T16:23:15.955Z,21.37
2018-09-29T16:25:44.273Z,35.20
2018-09-29T16:28:12.101Z,22.53
2018-09-29T16:30:41.037Z,16.93
2018-09-29T16:33:09.381Z,15.90
2018-09-29T16:35:37.720Z,32.40
2018-09-29T16:38:05.470Z,22.50
2018-09-29T16:40:34.384Z,19.20
2018-09-29T16:43:02.821Z,21.20
2018-09-29T16:45:31.154Z,21.17
2018-09-29T16:47:59.501Z,26.27
2018-09-29T16:50:27.827Z,42.83
2018-09-29T16:52:56.393Z,18.40
2018-09-29T16:55:24.520Z,10.77
2018-09-29T16:57:52.366Z,19.57
2018-09-29T17:00:21.346Z,15.83
2018-09-29T17:02:49.691Z,14.13
2018-09-29T17:05:18.013Z,7.63
2018-09-29T17:07:46.356Z,23.73
2018-09-29T17:10:14.683Z,8.07
2018-09-29T17:12:42.425Z,5.47
2018-09-29T17:15:11.669Z,6.70
2018-09-29T17:17:40.013Z,5.53
2018-09-29T17:20:09.543Z,6.60
2018-09-29T17:22:37.904Z,7.07
2018-09-29T17:25:06.211Z,8.30
2018-09-29T17:27:34.640Z,18.30
2018-09-29T17:30:03.055Z,15.80
2018-09-29T17:32:31.386Z,26.80
2018-09-29T17:34:59.180Z,9.30
2018-09-29T17:37:27.840Z,9.60
2018-09-29T17:39:56.457Z,13.60
2018-09-29T17:42:24.781Z,10.50
2018-09-29T17:44:53.125Z,6.67
2018-09-29T17:47:20.863Z,5.30
2018-09-29T17:49:50.164Z,5.03
2018-09-29T17:52:17.998Z,5.80
2018-09-29T17:54:46.322Z,5.13
2018-09-29T17:57:15.221Z,4.80
2018-09-29T17:59:42.982Z,11.27
2018-09-29T18:02:11.895Z,16.30
2018-09-29T18:04:40.228Z,29.10
2018-09-29T18:07:08.647Z,17.33
2018-09-29T18:09:36.980Z,9.37
2018-09-29T18:12:05.325Z,6.67
2018-09-29T18:14:33.692Z,6.67
2018-09-29T18:17:02.040Z,7.30
2018-09-29T18:19:30.365Z,6.20
2018-09-29T18:21:58.809Z,6.37
2018-09-29T18:24:27.077Z,5.27
2018-09-29T18:26:55.405Z,5.53
2018-09-29T18:29:23.723Z,4.47
2018-09-29T18:31:53.441Z,4.90
2018-09-29T18:34:27.124Z,4.93
2018-09-29T18:36:59.475Z,5.03
2018-09-29T18:39:28.406Z,3.50
2018-09-29T18:41:56.723Z,4.73
2018-09-29T18:44:25.057Z,6.20
2018-09-29T18:46:53.377Z,7.37
2018-09-29T18:49:21.776Z,7.70
2018-09-29T18:51:50.187Z,11.63
2018-09-29T18:54:18.463Z,7.80
2018-09-29T18:56:46.810Z,8.73
2018-09-29T18:59:15.130Z,5.47
2018-09-29T19:01:43.460Z,7.40
2018-09-29T19:04:11.829Z,3.60
2018-09-29T19:06:39.611Z,5.10
2018-09-29T19:09:08.553Z,4.13
2018-09-29T19:11:36.298Z,6.03
2018-09-29T19:14:05.259Z,10.60
2018-09-29T19:16:33.007Z,12.57
2018-09-29T19:19:01.390Z,5.97
2018-09-29T19:21:30.291Z,4.87
2018-09-29T19:23:58.624Z,4.10
2018-09-29T19:26:26.374Z,6.97
2018-09-29T19:28:55.279Z,4.30
2018-09-29T19:31:23.610Z,3.80
2018-09-29T19:33:52.241Z,4.77
2018-09-29T19:36:20.346Z,5.07
2018-09-29T19:38:48.237Z,5.50
2018-09-29T19:41:16.448Z,4.87
2018-09-29T19:43:45.355Z,5.47
2018-09-29T19:46:13.136Z,4.87
2018-09-29T19:48:42.013Z,5.37
2018-09-29T19:51:10.361Z,6.33
2018-09-29T19:53:38.097Z,5.93
2018-09-29T19:56:07.023Z,5.27
2018-09-29T19:58:35.343Z,5.30
2018-09-29T20:01:03.667Z,5.20
2018-09-29T20:03:31.427Z,8.07
2018-09-29T20:05:59.764Z,18.40
2018-09-29T20:08:28.674Z,4.40
2018-09-29T20:10:57.009Z,4.30
2018-09-29T20:13:25.138Z,4.13
2018-09-29T20:15:53.082Z,4.87
2018-09-29T20:18:22.013Z,8.67
2018-09-29T20:20:49.760Z,7.33
2018-09-29T20:23:18.672Z,8.40
2018-09-29T20:25:47.000Z,6.93
2018-09-29T20:28:15.590Z,6.97
2018-09-29T20:30:43.698Z,6.20
2018-09-29T20:33:12.028Z,8.17
2018-09-29T20:35:40.417Z,7.73
2018-09-29T20:38:08.772Z,6.13
2018-09-29T20:40:37.113Z,7.30
2018-09-29T20:43:05.446Z,7.37
2018-09-29T20:45:33.830Z,7.73
2018-09-29T20:48:02.156Z,9.53
2018-09-29T20:50:31.777Z,7.73
2018-09-29T20:53:00.130Z,5.73
2018-09-29T20:55:27.876Z,5.60
2018-09-29T20:57:56.794Z,8.13
2018-09-29T21:00:25.111Z,9.37
2018-09-29T21:02:53.441Z,9.77
2018-09-29T21:05:21.791Z,7.00
2018-09-29T21:07:49.541Z,8.50
2018-09-29T21:10:17.880Z,7.60
2018-09-29T21:12:46.831Z,15.10
2018-09-29T21:15:15.193Z,12.60
2018-09-29T21:17:43.739Z,4.80
2018-09-29T21:20:11.287Z,5.30
2018-09-29T21:22:39.613Z,4.70
2018-09-29T21:25:08.537Z,4.03
2018-09-29T21:27:36.879Z,4.93
2018-09-29T21:30:05.451Z,6.40
2018-09-29T21:32:32.989Z,6.23
2018-09-29T21:35:01.355Z,5.43
2018-09-29T21:37:30.553Z,6.17
2018-09-29T21:39:58.783Z,5.70
2018-09-29T21:42:26.648Z,5.60
2018-09-29T21:44:54.916Z,5.10
2018-09-29T21:47:24.417Z,5.93
2018-09-29T21:49:52.222Z,6.40
2018-09-29T21:52:20.627Z,5.03
2018-09-29T21:54:48.448Z,4.13
2018-09-29T21:57:16.802Z,3.63
2018-09-29T21:59:46.014Z,4.50
2018-09-29T22:02:14.402Z,3.60
2018-09-29T22:04:42.767Z,4.47
2018-09-29T22:07:10.535Z,19.57
2018-09-29T22:09:39.443Z,19.37
2018-09-29T22:12:08.694Z,16.63
2018-09-29T22:14:36.460Z,8.27
2018-09-29T22:17:04.774Z,5.13
2018-09-29T22:19:33.673Z,4.33
2018-09-29T22:22:01.988Z,3.30
2018-09-29T22:24:29.722Z,4.20
2018-09-29T22:26:58.615Z,3.50
2018-09-29T22:29:26.383Z,3.40
2018-09-29T22:31:54.813Z,3.63
2018-09-29T22:34:23.674Z,3.90
2018-09-29T22:36:51.990Z,3.47
2018-09-29T22:39:20.343Z,3.37
2018-09-29T22:41:48.077Z,3.50
2018-09-29T22:44:16.481Z,3.50
2018-09-29T22:46:45.376Z,3.37
2018-09-29T22:49:13.681Z,3.23
2018-09-29T22:51:42.025Z,3.30
2018-09-29T22:54:10.338Z,3.40
2018-09-29T22:56:38.077Z,3.57
2018-09-29T22:59:07.095Z,2.70
2018-09-29T23:01:35.413Z,2.67
2018-09-29T23:04:03.749Z,3.47
2018-09-29T23:06:32.059Z,4.00
2018-09-29T23:09:00.383Z,3.37
2018-09-29T23:11:28.723Z,3.47
2018-09-29T23:13:57.033Z,3.20
2018-09-29T23:16:25.367Z,3.10
2018-09-29T23:18:53.132Z,3.10
2018-09-29T23:23:50.312Z,2.90
2018-09-29T23:26:18.643Z,2.47
2018-09-29T23:28:46.381Z,3.07
2018-09-29T23:31:15.302Z,3.00
2018-09-29T23:33:43.038Z,2.90
2018-09-29T23:36:11.349Z,2.80
2018-09-29T23:38:39.663Z,3.03
2018-09-29T23:41:08.624Z,2.43
2018-09-29T23:43:36.365Z,2.63
2018-09-29T23:46:04.687Z,2.67
2018-09-29T23:48:32.988Z,2.87
2018-09-29T23:51:01.307Z,2.30
2018-09-29T23:53:29.617Z,2.40
2018-09-29T23:55:58.509Z,2.27
2018-09-29T23:58:26.821Z,3.20
